sensor_id;sensor_type;location;lat;lon;timestamp;temperature;humidity
10443;DHT22;5269;51.146;16.986;2023-04-24T00:01:03;13.50;99.90
10443;DHT22;5269;51.146;16.986;2023-04-24T00:03:32;13.50;99.90
10443;DHT22;5269;51.146;16.986;2023-04-24T00:06:00;13.50;99.90
10443;DHT22;5269;51.146;16.986;2023-04-24T00:08:27;13.50;99.90
10443;DHT22;5269;51.146;16.986;2023-04-24T00:10:56;13.50;99.90
10443;DHT22;5269;51.146;16.986;2023-04-24T00:13:23;13.60;99.90
10443;DHT22;5269;51.146;16.986;2023-04-24T00:15:50;13.50;99.90
10443;DHT22;5269;51.146;16.986;2023-04-24T00:18:17;13.50;99.90
10443;DHT22;5269;51.146;16.986;2023-04-24T00:20:44;13.60;99.90
10443;DHT22;5269;51.146;16.986;2023-04-24T00:23:12;13.60;99.90
10443;DHT22;5269;51.146;16.986;2023-04-24T00:25:39;13.50;99.90
10443;DHT22;5269;51.146;16.986;2023-04-24T00:28:07;13.40;99.90
10443;DHT22;5269;51.146;16.986;2023-04-24T00:30:34;13.50;99.90
10443;DHT22;5269;51.146;16.986;2023-04-24T00:33:01;13.40;99.90
10443;DHT22;5269;51.146;16.986;2023-04-24T00:35:28;13.40;99.90
10443;DHT22;5269;51.146;16.986;2023-04-24T00:37:55;13.40;99.90
10443;DHT22;5269;51.146;16.986;2023-04-24T00:40:22;13.40;99.90
10443;DHT22;5269;51.146;16.986;2023-04-24T00:42:49;13.40;99.90
10443;DHT22;5269;51.146;16.986;2023-04-24T00:45:17;13.40;99.90
10443;DHT22;5269;51.146;16.986;2023-04-24T00:47:45;13.40;99.90
10443;DHT22;5269;51.146;16.986;2023-04-24T00:50:15;13.40;99.90
10443;DHT22;5269;51.146;16.986;2023-04-24T00:52:42;13.40;99.90
10443;DHT22;5269;51.146;16.986;2023-04-24T00:55:09;13.40;99.90
10443;DHT22;5269;51.146;16.986;2023-04-24T00:57:36;13.40;99.90
10443;DHT22;5269;51.146;16.986;2023-04-24T01:00:05;13.40;99.90
10443;DHT22;5269;51.146;16.986;2023-04-24T01:02:34;13.40;99.90
10443;DHT22;5269;51.146;16.986;2023-04-24T01:05:01;13.40;99.90
10443;DHT22;5269;51.146;16.986;2023-04-24T01:07:29;13.40;99.90
10443;DHT22;5269;51.146;16.986;2023-04-24T01:09:56;13.40;99.90
10443;DHT22;5269;51.146;16.986;2023-04-24T01:12:23;13.40;99.90
10443;DHT22;5269;51.146;16.986;2023-04-24T01:14:50;13.40;99.90
10443;DHT22;5269;51.146;16.986;2023-04-24T01:17:17;13.30;99.90
10443;DHT22;5269;51.146;16.986;2023-04-24T01:19:45;13.30;99.90
10443;DHT22;5269;51.146;16.986;2023-04-24T01:22:15;13.20;99.90
10443;DHT22;5269;51.146;16.986;2023-04-24T01:24:42;13.30;99.90
10443;DHT22;5269;51.146;16.986;2023-04-24T01:27:10;13.20;99.90
10443;DHT22;5269;51.146;16.986;2023-04-24T01:29:37;13.20;99.90
10443;DHT22;5269;51.146;16.986;2023-04-24T01:32:05;13.20;99.90
10443;DHT22;5269;51.146;16.986;2023-04-24T01:34:32;13.20;99.90
10443;DHT22;5269;51.146;16.986;2023-04-24T01:37:00;13.20;99.90
10443;DHT22;5269;51.146;16.986;2023-04-24T01:39:28;13.20;99.90
10443;DHT22;5269;51.146;16.986;2023-04-24T01:41:56;13.20;99.90
10443;DHT22;5269;51.146;16.986;2023-04-24T01:44:23;13.20;99.90
10443;DHT22;5269;51.146;16.986;2023-04-24T01:46:50;13.30;99.90
10443;DHT22;5269;51.146;16.986;2023-04-24T01:49:17;13.30;99.90
10443;DHT22;5269;51.146;16.986;2023-04-24T01:51:44;13.30;99.90
10443;DHT22;5269;51.146;16.986;2023-04-24T01:54:11;13.30;99.90
10443;DHT22;5269;51.146;16.986;2023-04-24T01:56:41;13.20;99.90
10443;DHT22;5269;51.146;16.986;2023-04-24T01:59:10;13.40;99.90
10443;DHT22;5269;51.146;16.986;2023-04-24T02:01:38;13.40;99.90
10443;DHT22;5269;51.146;16.986;2023-04-24T02:04:06;13.40;99.90
10443;DHT22;5269;51.146;16.986;2023-04-24T02:06:33;13.40;99.90
10443;DHT22;5269;51.146;16.986;2023-04-24T02:09:00;13.40;99.90
10443;DHT22;5269;51.146;16.986;2023-04-24T02:11:27;13.40;99.90
10443;DHT22;5269;51.146;16.986;2023-04-24T02:13:55;13.40;99.90
10443;DHT22;5269;51.146;16.986;2023-04-24T02:16:22;13.30;99.90
10443;DHT22;5269;51.146;16.986;2023-04-24T02:18:49;13.20;99.90
10443;DHT22;5269;51.146;16.986;2023-04-24T02:21:16;13.20;99.90
10443;DHT22;5269;51.146;16.986;2023-04-24T02:23:43;13.20;99.90
10443;DHT22;5269;51.146;16.986;2023-04-24T02:26:10;13.20;99.90
10443;DHT22;5269;51.146;16.986;2023-04-24T02:28:37;13.10;99.90
10443;DHT22;5269;51.146;16.986;2023-04-24T02:31:06;13.10;99.90
10443;DHT22;5269;51.146;16.986;2023-04-24T02:33:33;13.10;99.90
10443;DHT22;5269;51.146;16.986;2023-04-24T02:36:01;13.10;99.90
10443;DHT22;5269;51.146;16.986;2023-04-24T02:38:28;13.10;99.90
10443;DHT22;5269;51.146;16.986;2023-04-24T02:40:55;13.00;99.90
10443;DHT22;5269;51.146;16.986;2023-04-24T02:43:22;12.90;99.90
10443;DHT22;5269;51.146;16.986;2023-04-24T02:45:49;13.00;99.90
10443;DHT22;5269;51.146;16.986;2023-04-24T02:48:17;13.10;99.90
10443;DHT22;5269;51.146;16.986;2023-04-24T02:50:46;13.20;99.90
10443;DHT22;5269;51.146;16.986;2023-04-24T02:53:13;13.10;99.90
10443;DHT22;5269;51.146;16.986;2023-04-24T02:55:40;13.00;99.90
10443;DHT22;5269;51.146;16.986;2023-04-24T02:58:07;13.10;99.90
10443;DHT22;5269;51.146;16.986;2023-04-24T03:00:34;13.20;99.90
10443;DHT22;5269;51.146;16.986;2023-04-24T03:03:01;13.30;99.90
10443;DHT22;5269;51.146;16.986;2023-04-24T03:05:29;13.30;99.90
10443;DHT22;5269;51.146;16.986;2023-04-24T03:07:57;13.20;99.90
10443;DHT22;5269;51.146;16.986;2023-04-24T03:10:24;13.20;99.90
10443;DHT22;5269;51.146;16.986;2023-04-24T03:12:51;13.20;99.90
10443;DHT22;5269;51.146;16.986;2023-04-24T03:15:18;13.20;99.90
10443;DHT22;5269;51.146;16.986;2023-04-24T03:17:45;13.20;99.90
10443;DHT22;5269;51.146;16.986;2023-04-24T03:20:12;13.10;99.90
10443;DHT22;5269;51.146;16.986;2023-04-24T03:22:40;13.10;99.90
10443;DHT22;5269;51.146;16.986;2023-04-24T03:25:08;13.00;99.90
10443;DHT22;5269;51.146;16.986;2023-04-24T03:27:35;13.10;99.90
10443;DHT22;5269;51.146;16.986;2023-04-24T03:30:03;13.10;99.90
10443;DHT22;5269;51.146;16.986;2023-04-24T03:32:30;13.10;99.90
10443;DHT22;5269;51.146;16.986;2023-04-24T03:34:58;13.10;99.90
10443;DHT22;5269;51.146;16.986;2023-04-24T03:37:24;13.10;99.90
10443;DHT22;5269;51.146;16.986;2023-04-24T03:39:53;13.10;99.90
10443;DHT22;5269;51.146;16.986;2023-04-24T03:42:20;13.00;99.90
10443;DHT22;5269;51.146;16.986;2023-04-24T03:44:47;13.00;99.90
10443;DHT22;5269;51.146;16.986;2023-04-24T03:47:14;12.90;99.90
10443;DHT22;5269;51.146;16.986;2023-04-24T03:49:40;12.80;99.90
10443;DHT22;5269;51.146;16.986;2023-04-24T03:52:07;12.80;99.90
10443;DHT22;5269;51.146;16.986;2023-04-24T03:54:34;12.80;99.90
10443;DHT22;5269;51.146;16.986;2023-04-24T03:57:02;12.80;99.90
10443;DHT22;5269;51.146;16.986;2023-04-24T03:59:30;12.70;99.90
10443;DHT22;5269;51.146;16.986;2023-04-24T04:01:57;12.70;99.90
10443;DHT22;5269;51.146;16.986;2023-04-24T04:04:24;12.60;99.90
10443;DHT22;5269;51.146;16.986;2023-04-24T04:06:50;12.60;99.90
10443;DHT22;5269;51.146;16.986;2023-04-24T04:09:17;12.60;99.90
10443;DHT22;5269;51.146;16.986;2023-04-24T04:11:44;12.60;99.90
10443;DHT22;5269;51.146;16.986;2023-04-24T04:14:12;12.70;99.90
10443;DHT22;5269;51.146;16.986;2023-04-24T04:16:39;12.80;99.90
10443;DHT22;5269;51.146;16.986;2023-04-24T04:19:10;12.70;99.90
10443;DHT22;5269;51.146;16.986;2023-04-24T04:21:37;12.70;99.90
10443;DHT22;5269;51.146;16.986;2023-04-24T04:24:04;12.90;99.90
10443;DHT22;5269;51.146;16.986;2023-04-24T04:26:31;12.90;99.90
10443;DHT22;5269;51.146;16.986;2023-04-24T04:28:58;12.90;99.90
10443;DHT22;5269;51.146;16.986;2023-04-24T04:31:27;12.90;99.90
10443;DHT22;5269;51.146;16.986;2023-04-24T04:33:54;12.80;99.90
10443;DHT22;5269;51.146;16.986;2023-04-24T04:36:21;12.80;99.90
10443;DHT22;5269;51.146;16.986;2023-04-24T04:38:49;12.80;99.90
10443;DHT22;5269;51.146;16.986;2023-04-24T04:41:16;12.80;99.90
10443;DHT22;5269;51.146;16.986;2023-04-24T04:43:43;12.90;99.90
10443;DHT22;5269;51.146;16.986;2023-04-24T04:46:12;12.90;99.90
10443;DHT22;5269;51.146;16.986;2023-04-24T04:48:40;13.00;99.90
10443;DHT22;5269;51.146;16.986;2023-04-24T04:51:07;12.90;99.90
10443;DHT22;5269;51.146;16.986;2023-04-24T04:53:33;13.00;99.90
10443;DHT22;5269;51.146;16.986;2023-04-24T04:56:00;13.10;99.90
10443;DHT22;5269;51.146;16.986;2023-04-24T04:58:27;13.20;99.90
10443;DHT22;5269;51.146;16.986;2023-04-24T05:00:55;13.30;99.90
10443;DHT22;5269;51.146;16.986;2023-04-24T05:03:22;13.40;99.90
10443;DHT22;5269;51.146;16.986;2023-04-24T05:05:51;13.50;99.90
10443;DHT22;5269;51.146;16.986;2023-04-24T05:08:18;13.60;99.90
10443;DHT22;5269;51.146;16.986;2023-04-24T05:10:48;13.70;99.90
10443;DHT22;5269;51.146;16.986;2023-04-24T05:13:15;13.70;99.90
10443;DHT22;5269;51.146;16.986;2023-04-24T05:15:41;13.80;99.90
10443;DHT22;5269;51.146;16.986;2023-04-24T05:18:08;13.80;99.90
10443;DHT22;5269;51.146;16.986;2023-04-24T05:20:35;14.00;47.10
10443;DHT22;5269;51.146;16.986;2023-04-24T05:23:03;14.10;1.00
10443;DHT22;5269;51.146;16.986;2023-04-24T05:25:30;14.30;99.90
10443;DHT22;5269;51.146;16.986;2023-04-24T05:28:00;14.40;99.90
10443;DHT22;5269;51.146;16.986;2023-04-24T05:30:27;14.60;1.00
10443;DHT22;5269;51.146;16.986;2023-04-24T05:32:54;14.60;1.00
10443;DHT22;5269;51.146;16.986;2023-04-24T05:35:21;14.50;1.00
10443;DHT22;5269;51.146;16.986;2023-04-24T05:37:48;14.60;1.00
10443;DHT22;5269;51.146;16.986;2023-04-24T05:40:16;14.50;1.00
10443;DHT22;5269;51.146;16.986;2023-04-24T05:42:43;14.50;1.00
10443;DHT22;5269;51.146;16.986;2023-04-24T06:01:52;14.90;1.00
10443;DHT22;5269;51.146;16.986;2023-04-24T06:04:19;15.00;94.50
10443;DHT22;5269;51.146;16.986;2023-04-24T06:06:46;15.10;1.00
10443;DHT22;5269;51.146;16.986;2023-04-24T06:09:16;15.10;1.00
10443;DHT22;5269;51.146;16.986;2023-04-24T06:28:37;15.00;20.50
10443;DHT22;5269;51.146;16.986;2023-04-24T06:31:07;15.10;68.30
10443;DHT22;5269;51.146;16.986;2023-04-24T06:33:34;15.10;1.00
10443;DHT22;5269;51.146;16.986;2023-04-24T06:36:01;15.20;1.00
10443;DHT22;5269;51.146;16.986;2023-04-24T06:38:31;15.20;1.00
10443;DHT22;5269;51.146;16.986;2023-04-24T06:40:58;15.20;99.90
10443;DHT22;5269;51.146;16.986;2023-04-24T06:43:28;15.30;99.90
10443;DHT22;5269;51.146;16.986;2023-04-24T06:45:57;15.40;1.00
10443;DHT22;5269;51.146;16.986;2023-04-24T06:48:24;15.60;99.90
10443;DHT22;5269;51.146;16.986;2023-04-24T06:50:52;15.60;99.90
10443;DHT22;5269;51.146;16.986;2023-04-24T06:53:23;15.80;99.90
10443;DHT22;5269;51.146;16.986;2023-04-24T06:56:02;15.90;99.90
10443;DHT22;5269;51.146;16.986;2023-04-24T06:58:32;15.90;99.90
10443;DHT22;5269;51.146;16.986;2023-04-24T07:01:05;15.90;99.90
10443;DHT22;5269;51.146;16.986;2023-04-24T07:03:37;15.90;99.90
10443;DHT22;5269;51.146;16.986;2023-04-24T07:08:44;15.90;99.90
10443;DHT22;5269;51.146;16.986;2023-04-24T07:09:11;16.00;99.90
10443;DHT22;5269;51.146;16.986;2023-04-24T07:11:39;16.20;99.90
10443;DHT22;5269;51.146;16.986;2023-04-24T07:14:06;16.40;99.90
10443;DHT22;5269;51.146;16.986;2023-04-24T07:16:34;16.30;20.30
10443;DHT22;5269;51.146;16.986;2023-04-24T07:19:01;16.30;1.00
10443;DHT22;5269;51.146;16.986;2023-04-24T07:21:30;16.30;1.00
10443;DHT22;5269;51.146;16.986;2023-04-24T07:23:57;16.40;1.00
10443;DHT22;5269;51.146;16.986;2023-04-24T07:26:25;16.40;1.00
10443;DHT22;5269;51.146;16.986;2023-04-24T07:28:56;16.40;1.00
10443;DHT22;5269;51.146;16.986;2023-04-24T07:31:23;16.50;71.30
10443;DHT22;5269;51.146;16.986;2023-04-24T07:33:51;16.60;99.90
10443;DHT22;5269;51.146;16.986;2023-04-24T07:36:21;16.40;1.00
10443;DHT22;5269;51.146;16.986;2023-04-24T07:38:49;16.40;99.90
10443;DHT22;5269;51.146;16.986;2023-04-24T07:41:16;16.40;99.90
10443;DHT22;5269;51.146;16.986;2023-04-24T07:43:44;16.50;1.00
10443;DHT22;5269;51.146;16.986;2023-04-24T07:46:11;16.40;1.00
10443;DHT22;5269;51.146;16.986;2023-04-24T07:48:38;16.60;1.00
10443;DHT22;5269;51.146;16.986;2023-04-24T07:51:07;16.80;1.00
10443;DHT22;5269;51.146;16.986;2023-04-24T07:53:38;16.80;99.90
10443;DHT22;5269;51.146;16.986;2023-04-24T07:56:06;16.70;99.90
10443;DHT22;5269;51.146;16.986;2023-04-24T07:58:33;16.60;1.00
10443;DHT22;5269;51.146;16.986;2023-04-24T08:01:00;16.70;1.00
10443;DHT22;5269;51.146;16.986;2023-04-24T08:03:28;16.70;1.00
10443;DHT22;5269;51.146;16.986;2023-04-24T08:05:55;16.90;1.00
10443;DHT22;5269;51.146;16.986;2023-04-24T08:08:24;16.80;99.90
10443;DHT22;5269;51.146;16.986;2023-04-24T08:10:57;17.00;99.90
10443;DHT22;5269;51.146;16.986;2023-04-24T08:13:27;17.10;99.90
10443;DHT22;5269;51.146;16.986;2023-04-24T08:15:54;17.00;99.90
10443;DHT22;5269;51.146;16.986;2023-04-24T08:18:22;17.10;99.90
10443;DHT22;5269;51.146;16.986;2023-04-24T08:20:49;17.20;99.90
10443;DHT22;5269;51.146;16.986;2023-04-24T08:23:16;17.10;99.90
10443;DHT22;5269;51.146;16.986;2023-04-24T08:25:44;16.80;99.90
10443;DHT22;5269;51.146;16.986;2023-04-24T08:28:11;17.10;99.90
10443;DHT22;5269;51.146;16.986;2023-04-24T08:30:38;17.00;99.90
10443;DHT22;5269;51.146;16.986;2023-04-24T08:33:05;16.80;11.30
10443;DHT22;5269;51.146;16.986;2023-04-24T08:35:32;16.80;99.90
10443;DHT22;5269;51.146;16.986;2023-04-24T08:38:01;16.80;1.00
10443;DHT22;5269;51.146;16.986;2023-04-24T08:40:28;16.60;99.90
10443;DHT22;5269;51.146;16.986;2023-04-24T08:45:41;16.50;99.90
10443;DHT22;5269;51.146;16.986;2023-04-24T08:48:09;16.40;1.00
10443;DHT22;5269;51.146;16.986;2023-04-24T08:50:36;16.30;1.00
10443;DHT22;5269;51.146;16.986;2023-04-24T08:53:04;16.20;1.00
10443;DHT22;5269;51.146;16.986;2023-04-24T08:55:32;16.20;26.20
10443;DHT22;5269;51.146;16.986;2023-04-24T08:58:02;16.20;99.90
10443;DHT22;5269;51.146;16.986;2023-04-24T09:00:32;16.40;54.90
10443;DHT22;5269;51.146;16.986;2023-04-24T09:03:01;16.50;1.00
10443;DHT22;5269;51.146;16.986;2023-04-24T09:05:29;16.40;99.90
10443;DHT22;5269;51.146;16.986;2023-04-24T09:07:56;16.50;99.90
10443;DHT22;5269;51.146;16.986;2023-04-24T09:10:24;16.60;1.00
10443;DHT22;5269;51.146;16.986;2023-04-24T09:12:52;16.60;1.00
10443;DHT22;5269;51.146;16.986;2023-04-24T09:15:20;16.40;1.00
10443;DHT22;5269;51.146;16.986;2023-04-24T09:17:47;16.50;99.90
10443;DHT22;5269;51.146;16.986;2023-04-24T09:20:15;16.50;1.00
10443;DHT22;5269;51.146;16.986;2023-04-24T09:22:42;16.60;60.60
10443;DHT22;5269;51.146;16.986;2023-04-24T09:25:10;16.60;1.00
10443;DHT22;5269;51.146;16.986;2023-04-24T09:27:41;16.90;1.00
10443;DHT22;5269;51.146;16.986;2023-04-24T09:30:09;17.00;99.90
10443;DHT22;5269;51.146;16.986;2023-04-24T09:32:38;17.30;1.00
10443;DHT22;5269;51.146;16.986;2023-04-24T09:35:07;17.20;1.00
10443;DHT22;5269;51.146;16.986;2023-04-24T09:37:38;17.20;99.90
10443;DHT22;5269;51.146;16.986;2023-04-24T09:40:14;17.40;1.00
10443;DHT22;5269;51.146;16.986;2023-04-24T09:42:44;17.50;1.00
10443;DHT22;5269;51.146;16.986;2023-04-24T09:45:12;17.50;99.90
10443;DHT22;5269;51.146;16.986;2023-04-24T09:47:41;17.30;99.90
10443;DHT22;5269;51.146;16.986;2023-04-24T09:50:15;17.40;99.90
10443;DHT22;5269;51.146;16.986;2023-04-24T09:52:46;17.30;1.00
10443;DHT22;5269;51.146;16.986;2023-04-24T09:55:17;17.20;1.00
10443;DHT22;5269;51.146;16.986;2023-04-24T09:57:48;17.40;1.00
10443;DHT22;5269;51.146;16.986;2023-04-24T10:03:51;17.80;26.60
10443;DHT22;5269;51.146;16.986;2023-04-24T10:06:18;17.90;1.00
10443;DHT22;5269;51.146;16.986;2023-04-24T10:08:49;17.50;1.00
10443;DHT22;5269;51.146;16.986;2023-04-24T10:11:16;17.60;1.00
10443;DHT22;5269;51.146;16.986;2023-04-24T10:13:43;17.60;1.00
10443;DHT22;5269;51.146;16.986;2023-04-24T10:16:10;17.40;1.00
10443;DHT22;5269;51.146;16.986;2023-04-24T10:18:39;17.30;32.40
10443;DHT22;5269;51.146;16.986;2023-04-24T10:21:09;17.30;99.90
10443;DHT22;5269;51.146;16.986;2023-04-24T10:23:36;17.30;1.00
10443;DHT22;5269;51.146;16.986;2023-04-24T10:26:04;17.30;30.40
10443;DHT22;5269;51.146;16.986;2023-04-24T10:28:32;17.30;99.90
10443;DHT22;5269;51.146;16.986;2023-04-24T10:31:00;17.50;1.00
10443;DHT22;5269;51.146;16.986;2023-04-24T10:33:28;17.30;10.10
10443;DHT22;5269;51.146;16.986;2023-04-24T10:35:56;17.00;99.90
10443;DHT22;5269;51.146;16.986;2023-04-24T10:38:27;16.90;99.90
10443;DHT22;5269;51.146;16.986;2023-04-24T10:41:06;16.80;1.00
10443;DHT22;5269;51.146;16.986;2023-04-24T10:43:33;16.90;99.90
10443;DHT22;5269;51.146;16.986;2023-04-24T10:46:01;17.10;99.90
10443;DHT22;5269;51.146;16.986;2023-04-24T10:48:28;17.30;99.90
10443;DHT22;5269;51.146;16.986;2023-04-24T10:50:56;17.30;99.90
10443;DHT22;5269;51.146;16.986;2023-04-24T10:53:24;17.60;1.00
10443;DHT22;5269;51.146;16.986;2023-04-24T10:55:59;17.50;47.80
10443;DHT22;5269;51.146;16.986;2023-04-24T10:58:40;17.50;99.90
10443;DHT22;5269;51.146;16.986;2023-04-24T11:01:24;17.50;1.00
10443;DHT22;5269;51.146;16.986;2023-04-24T11:03:56;17.70;1.00
10443;DHT22;5269;51.146;16.986;2023-04-24T11:06:29;17.50;1.00
10443;DHT22;5269;51.146;16.986;2023-04-24T11:09:02;17.60;1.00
10443;DHT22;5269;51.146;16.986;2023-04-24T11:12:24;17.40;99.90
10443;DHT22;5269;51.146;16.986;2023-04-24T11:15:00;17.40;99.90
10443;DHT22;5269;51.146;16.986;2023-04-24T11:17:33;17.60;99.90
10443;DHT22;5269;51.146;16.986;2023-04-24T11:20:06;17.60;99.90
10443;DHT22;5269;51.146;16.986;2023-04-24T11:22:43;17.50;99.90
10443;DHT22;5269;51.146;16.986;2023-04-24T11:25:11;17.30;99.90
10443;DHT22;5269;51.146;16.986;2023-04-24T11:27:48;17.50;99.90
10443;DHT22;5269;51.146;16.986;2023-04-24T11:30:17;17.60;99.90
10443;DHT22;5269;51.146;16.986;2023-04-24T11:32:50;17.70;99.90
10443;DHT22;5269;51.146;16.986;2023-04-24T11:35:29;17.70;99.90
10443;DHT22;5269;51.146;16.986;2023-04-24T11:37:56;17.80;90.80
10443;DHT22;5269;51.146;16.986;2023-04-24T11:40:24;17.90;74.60
10443;DHT22;5269;51.146;16.986;2023-04-24T11:42:54;18.00;65.90
10443;DHT22;5269;51.146;16.986;2023-04-24T11:45:23;18.10;70.80
10443;DHT22;5269;51.146;16.986;2023-04-24T11:47:50;18.10;99.90
10443;DHT22;5269;51.146;16.986;2023-04-24T11:50:19;18.10;99.90
10443;DHT22;5269;51.146;16.986;2023-04-24T11:52:47;17.80;99.90
10443;DHT22;5269;51.146;16.986;2023-04-24T11:55:26;17.70;99.90
10443;DHT22;5269;51.146;16.986;2023-04-24T11:57:56;17.60;99.90
10443;DHT22;5269;51.146;16.986;2023-04-24T12:00:25;17.90;99.90
10443;DHT22;5269;51.146;16.986;2023-04-24T12:03:04;18.10;99.90
10443;DHT22;5269;51.146;16.986;2023-04-24T12:05:32;18.30;99.90
10443;DHT22;5269;51.146;16.986;2023-04-24T12:08:00;17.90;27.60
10443;DHT22;5269;51.146;16.986;2023-04-24T12:10:28;18.10;11.70
10443;DHT22;5269;51.146;16.986;2023-04-24T12:12:57;18.10;1.00
10443;DHT22;5269;51.146;16.986;2023-04-24T12:15:26;18.00;1.00
10443;DHT22;5269;51.146;16.986;2023-04-24T12:17:55;17.80;84.60
10443;DHT22;5269;51.146;16.986;2023-04-24T12:20:24;17.60;28.10
10443;DHT22;5269;51.146;16.986;2023-04-24T12:22:53;17.50;5.90
10443;DHT22;5269;51.146;16.986;2023-04-24T12:25:22;17.60;99.90
10443;DHT22;5269;51.146;16.986;2023-04-24T12:27:53;17.40;99.90
10443;DHT22;5269;51.146;16.986;2023-04-24T12:30:26;17.30;99.90
10443;DHT22;5269;51.146;16.986;2023-04-24T12:32:54;17.40;99.90
10443;DHT22;5269;51.146;16.986;2023-04-24T12:35:24;17.20;99.90
10443;DHT22;5269;51.146;16.986;2023-04-24T12:37:52;17.00;99.90
10443;DHT22;5269;51.146;16.986;2023-04-24T12:40:20;16.70;99.90
10443;DHT22;5269;51.146;16.986;2023-04-24T12:42:48;16.60;1.00
10443;DHT22;5269;51.146;16.986;2023-04-24T12:45:16;16.60;1.00
10443;DHT22;5269;51.146;16.986;2023-04-24T12:47:46;16.10;1.00
10443;DHT22;5269;51.146;16.986;2023-04-24T12:50:14;15.80;99.90
10443;DHT22;5269;51.146;16.986;2023-04-24T12:52:44;15.50;1.00
10443;DHT22;5269;51.146;16.986;2023-04-24T12:55:11;15.50;1.00
10443;DHT22;5269;51.146;16.986;2023-04-24T12:57:39;15.50;99.90
10443;DHT22;5269;51.146;16.986;2023-04-24T13:00:09;15.30;1.00
10443;DHT22;5269;51.146;16.986;2023-04-24T13:02:36;15.20;99.90
10443;DHT22;5269;51.146;16.986;2023-04-24T13:05:05;15.20;1.00
10443;DHT22;5269;51.146;16.986;2023-04-24T13:07:37;15.20;99.90
10443;DHT22;5269;51.146;16.986;2023-04-24T13:10:04;15.10;1.00
10443;DHT22;5269;51.146;16.986;2023-04-24T13:12:31;15.10;1.00
10443;DHT22;5269;51.146;16.986;2023-04-24T13:14:59;14.80;99.90
10443;DHT22;5269;51.146;16.986;2023-04-24T13:17:26;14.70;99.90
10443;DHT22;5269;51.146;16.986;2023-04-24T13:19:54;14.70;1.00
10443;DHT22;5269;51.146;16.986;2023-04-24T13:22:23;14.60;1.00
10443;DHT22;5269;51.146;16.986;2023-04-24T13:24:50;14.70;1.00
10443;DHT22;5269;51.146;16.986;2023-04-24T13:27:26;14.70;1.00
10443;DHT22;5269;51.146;16.986;2023-04-24T13:29:53;14.70;1.00
10443;DHT22;5269;51.146;16.986;2023-04-24T13:32:23;14.60;1.00
10443;DHT22;5269;51.146;16.986;2023-04-24T13:34:50;14.50;99.90
10443;DHT22;5269;51.146;16.986;2023-04-24T13:37:17;14.50;40.50
10443;DHT22;5269;51.146;16.986;2023-04-24T13:39:49;14.30;99.90
10443;DHT22;5269;51.146;16.986;2023-04-24T13:42:16;14.20;99.90
10443;DHT22;5269;51.146;16.986;2023-04-24T13:44:43;14.20;99.60
10443;DHT22;5269;51.146;16.986;2023-04-24T13:47:16;14.30;99.90
10443;DHT22;5269;51.146;16.986;2023-04-24T13:50:01;14.20;1.00
10443;DHT22;5269;51.146;16.986;2023-04-24T13:52:29;14.30;99.90
10443;DHT22;5269;51.146;16.986;2023-04-24T13:55:22;14.20;99.90
10443;DHT22;5269;51.146;16.986;2023-04-24T13:57:59;14.20;99.90
10443;DHT22;5269;51.146;16.986;2023-04-24T14:00:52;14.20;1.00
10443;DHT22;5269;51.146;16.986;2023-04-24T14:03:19;14.00;1.00
10443;DHT22;5269;51.146;16.986;2023-04-24T14:05:46;14.10;1.00
10443;DHT22;5269;51.146;16.986;2023-04-24T14:08:13;14.20;1.00
10443;DHT22;5269;51.146;16.986;2023-04-24T14:10:45;14.20;1.00
10443;DHT22;5269;51.146;16.986;2023-04-24T14:13:12;14.20;1.00
10443;DHT22;5269;51.146;16.986;2023-04-24T14:15:39;14.20;1.00
10443;DHT22;5269;51.146;16.986;2023-04-24T14:18:09;14.20;1.00
10443;DHT22;5269;51.146;16.986;2023-04-24T14:20:37;14.10;95.90
10443;DHT22;5269;51.146;16.986;2023-04-24T14:23:03;14.10;99.90
10443;DHT22;5269;51.146;16.986;2023-04-24T14:25:59;14.10;1.00
10443;DHT22;5269;51.146;16.986;2023-04-24T14:28:26;14.10;1.00
10443;DHT22;5269;51.146;16.986;2023-04-24T14:30:53;14.10;99.90
10443;DHT22;5269;51.146;16.986;2023-04-24T14:33:20;14.10;99.90
10443;DHT22;5269;51.146;16.986;2023-04-24T14:35:49;14.20;1.00
10443;DHT22;5269;51.146;16.986;2023-04-24T14:38:16;14.10;1.00
10443;DHT22;5269;51.146;16.986;2023-04-24T14:40:43;14.10;1.00
10443;DHT22;5269;51.146;16.986;2023-04-24T14:43:11;14.00;1.00
10443;DHT22;5269;51.146;16.986;2023-04-24T14:49:00;14.00;1.00
10443;DHT22;5269;51.146;16.986;2023-04-24T14:51:27;13.90;1.00
10443;DHT22;5269;51.146;16.986;2023-04-24T14:53:54;13.90;1.00
10443;DHT22;5269;51.146;16.986;2023-04-24T14:56:20;13.80;99.90
10443;DHT22;5269;51.146;16.986;2023-04-24T14:58:49;13.70;1.00
10443;DHT22;5269;51.146;16.986;2023-04-24T15:01:16;13.70;1.00
10443;DHT22;5269;51.146;16.986;2023-04-24T15:03:43;13.70;1.00
10443;DHT22;5269;51.146;16.986;2023-04-24T15:06:11;13.70;99.90
10443;DHT22;5269;51.146;16.986;2023-04-24T15:08:38;13.60;1.00
10443;DHT22;5269;51.146;16.986;2023-04-24T15:11:05;13.60;99.90
10443;DHT22;5269;51.146;16.986;2023-04-24T15:13:32;13.60;1.00
10443;DHT22;5269;51.146;16.986;2023-04-24T15:16:00;13.50;1.00
10443;DHT22;5269;51.146;16.986;2023-04-24T15:18:27;13.50;99.90
10443;DHT22;5269;51.146;16.986;2023-04-24T15:20:55;13.40;1.00
10443;DHT22;5269;51.146;16.986;2023-04-24T15:23:22;13.40;1.00
10443;DHT22;5269;51.146;16.986;2023-04-24T15:25:49;13.40;1.00
10443;DHT22;5269;51.146;16.986;2023-04-24T15:28:17;13.30;1.00
10443;DHT22;5269;51.146;16.986;2023-04-24T15:30:45;13.40;88.50
10443;DHT22;5269;51.146;16.986;2023-04-24T15:33:13;13.30;99.90
10443;DHT22;5269;51.146;16.986;2023-04-24T15:35:40;13.30;1.00
10443;DHT22;5269;51.146;16.986;2023-04-24T15:38:07;13.20;1.00
10443;DHT22;5269;51.146;16.986;2023-04-24T15:40:34;13.20;99.90
10443;DHT22;5269;51.146;16.986;2023-04-24T15:43:01;13.20;99.90
10443;DHT22;5269;51.146;16.986;2023-04-24T15:45:28;13.20;1.00
10443;DHT22;5269;51.146;16.986;2023-04-24T15:47:55;13.30;99.90
10443;DHT22;5269;51.146;16.986;2023-04-24T15:50:25;13.40;1.00
10443;DHT22;5269;51.146;16.986;2023-04-24T15:52:52;13.30;99.90
10443;DHT22;5269;51.146;16.986;2023-04-24T15:55:19;13.40;1.00
10443;DHT22;5269;51.146;16.986;2023-04-24T15:57:46;13.50;1.00
10443;DHT22;5269;51.146;16.986;2023-04-24T16:00:13;13.40;12.90
10443;DHT22;5269;51.146;16.986;2023-04-24T16:02:40;13.40;99.90
10443;DHT22;5269;51.146;16.986;2023-04-24T16:05:08;13.40;1.00
10443;DHT22;5269;51.146;16.986;2023-04-24T16:07:37;13.40;1.00
10443;DHT22;5269;51.146;16.986;2023-04-24T16:10:05;13.40;1.00
10443;DHT22;5269;51.146;16.986;2023-04-24T16:12:32;13.50;1.00
10443;DHT22;5269;51.146;16.986;2023-04-24T16:14:59;13.30;1.00
10443;DHT22;5269;51.146;16.986;2023-04-24T16:17:26;13.30;99.90
10443;DHT22;5269;51.146;16.986;2023-04-24T16:19:53;13.20;1.00
10443;DHT22;5269;51.146;16.986;2023-04-24T16:22:20;13.30;1.00
10443;DHT22;5269;51.146;16.986;2023-04-24T16:24:48;13.30;1.00
10443;DHT22;5269;51.146;16.986;2023-04-24T16:27:15;13.30;1.00